createdAt,value
2017-06-27T18:59:35.452Z,71.70
2017-06-27T19:02:04.337Z,71.40
2017-06-27T19:04:32.974Z,71.90
2017-06-27T19:07:02.216Z,72.40
2017-06-27T19:09:30.752Z,72.40
2017-06-27T19:11:59.269Z,72.30
2017-06-27T19:14:28.011Z,72.90
2017-06-27T19:16:56.567Z,74.00
2017-06-27T19:19:25.638Z,74.40
2017-06-27T19:21:55.069Z,75.40
2017-06-27T19:24:23.924Z,76.00
2017-06-27T19:26:52.653Z,76.70
2017-06-27T19:29:22.011Z,77.50
2017-06-27T19:31:50.522Z,77.50
2017-06-27T19:34:18.987Z,78.00
2017-06-27T19:36:47.454Z,78.00
2017-06-27T19:39:14.595Z,78.40
2017-06-27T19:41:41.419Z,78.40
2017-06-27T19:44:09.198Z,78.40
2017-06-27T19:46:36.446Z,78.50
2017-06-27T19:49:04.106Z,78.60
2017-06-27T19:51:31.768Z,78.10
2017-06-27T19:54:00.305Z,78.30
2017-06-27T19:56:27.807Z,78.20
2017-06-27T19:58:54.955Z,78.30
2017-06-27T20:01:22.723Z,78.30
2017-06-27T20:03:49.864Z,79.20
2017-06-27T20:06:16.804Z,79.00
2017-06-27T20:08:44.361Z,79.00
2017-06-27T20:11:11.511Z,79.10
2017-06-27T20:13:38.354Z,79.20
2017-06-27T20:16:05.295Z,79.30
2017-06-27T20:18:32.237Z,79.30
2017-06-27T20:21:00.000Z,79.50
2017-06-27T20:23:27.249Z,79.60
2017-06-27T20:25:54.194Z,79.90
2017-06-27T20:28:21.137Z,80.20
2017-06-27T20:30:48.061Z,80.20
2017-06-27T20:33:14.589Z,80.20
2017-06-27T20:35:41.442Z,80.60
2017-06-27T20:38:08.700Z,81.00
2017-06-27T20:40:35.162Z,80.60
2017-06-27T20:43:01.673Z,80.70
2017-06-27T20:45:28.918Z,81.20
2017-06-27T20:47:56.379Z,81.20
2017-06-27T20:50:22.935Z,81.20
2017-06-27T20:52:49.412Z,81.30
2017-06-27T20:55:16.269Z,81.80
2017-06-27T20:57:43.561Z,82.20
2017-06-27T21:00:10.147Z,82.10
2017-06-27T21:02:38.014Z,82.20
2017-06-27T21:05:04.649Z,82.10
2017-06-27T21:07:31.119Z,82.20
2017-06-27T21:09:57.633Z,82.10
2017-06-27T21:12:24.971Z,83.10
2017-06-27T21:14:51.489Z,82.40
2017-06-27T21:17:17.964Z,82.40
2017-06-27T21:19:45.313Z,82.50
2017-06-27T21:22:12.526Z,82.70
2017-06-27T21:24:38.968Z,82.70
2017-06-27T21:27:05.518Z,82.70
2017-06-27T21:29:32.733Z,82.60
2017-06-27T21:31:59.201Z,82.80
2017-06-27T21:34:26.435Z,82.90
2017-06-27T21:36:52.907Z,82.90
2017-06-27T21:39:19.410Z,83.20
2017-06-27T21:41:45.870Z,83.20
2017-06-27T21:44:12.382Z,83.50
2017-06-27T21:46:39.629Z,84.10
2017-06-27T21:49:06.183Z,84.10
2017-06-27T21:51:32.680Z,84.50
2017-06-27T21:53:59.139Z,84.90
2017-06-27T21:56:25.632Z,84.70
2017-06-27T21:58:52.135Z,85.20
2017-06-27T22:01:18.630Z,84.40
2017-06-27T22:03:46.150Z,84.40
2017-06-27T22:06:12.649Z,84.40
2017-06-27T22:08:39.125Z,84.40
2017-06-27T22:11:05.692Z,85.00
2017-06-27T22:13:32.187Z,84.60
2017-06-27T22:15:58.699Z,85.70
2017-06-27T22:18:25.164Z,85.00
2017-06-27T22:20:51.668Z,84.60
2017-06-27T22:23:18.302Z,84.60
2017-06-27T22:25:44.775Z,84.60
2017-06-27T22:28:12.046Z,85.00
2017-06-27T22:30:39.316Z,84.80
2017-06-27T22:33:05.821Z,84.80
2017-06-27T22:35:33.048Z,84.70
2017-06-27T22:37:59.756Z,84.60
2017-06-27T22:40:26.217Z,84.60
2017-06-27T22:42:52.699Z,84.50
2017-06-27T22:45:19.250Z,84.40
2017-06-27T22:47:45.708Z,84.50
2017-06-27T22:50:12.170Z,84.50
2017-06-27T22:52:39.666Z,84.50
2017-06-27T22:55:06.153Z,84.40
2017-06-27T22:57:33.382Z,84.70
2017-06-27T23:00:00.205Z,84.60
2017-06-27T23:02:26.706Z,84.80
2017-06-27T23:04:53.180Z,84.80
2017-06-27T23:07:19.893Z,84.80
2017-06-27T23:09:46.389Z,84.80
2017-06-27T23:12:13.649Z,84.80
2017-06-27T23:14:40.430Z,84.70
2017-06-27T23:17:07.979Z,84.70
2017-06-27T23:19:34.490Z,84.70
2017-06-27T23:22:01.022Z,84.70
2017-06-27T23:24:27.493Z,84.70
2017-06-27T23:26:53.989Z,84.60
2017-06-27T23:29:20.516Z,84.70
2017-06-27T23:31:47.005Z,84.60
2017-06-27T23:34:13.490Z,84.70
2017-06-27T23:36:39.993Z,84.60
2017-06-27T23:39:07.217Z,85.00
2017-06-27T23:41:33.749Z,85.00
2017-06-27T23:44:00.204Z,85.00
2017-06-27T23:46:27.430Z,85.10
2017-06-27T23:48:53.915Z,85.00
2017-06-27T23:51:20.416Z,85.00
2017-06-27T23:53:47.932Z,85.20
2017-06-27T23:56:14.407Z,85.10
2017-06-27T23:58:41.673Z,85.60
